createdAt,value
2018-04-12T00:01:11.901Z,36.50
2018-04-12T00:03:38.892Z,37.30
2018-04-12T00:06:05.899Z,37.00
2018-04-12T00:08:33.744Z,37.00
2018-04-12T00:16:06.654Z,36.90
2018-04-12T00:18:33.648Z,36.80
2018-04-12T00:21:00.642Z,36.80
2018-04-12T00:23:28.508Z,36.60
2018-04-12T00:25:55.497Z,36.60
2018-04-12T00:28:22.913Z,36.80
2018-04-12T00:30:49.976Z,37.10
2018-04-12T00:33:17.929Z,37.00
2018-04-12T00:35:45.243Z,36.50
2018-04-12T00:38:12.299Z,36.70
2018-04-12T00:40:39.290Z,37.10
2018-04-12T00:43:06.281Z,36.90
2018-04-12T00:45:36.155Z,37.90
2018-04-12T00:48:03.147Z,38.00
2018-04-12T00:50:30.978Z,37.60
2018-04-12T00:52:58.018Z,38.00
2018-04-12T00:55:25.010Z,37.40
2018-04-12T00:57:51.998Z,37.20
2018-04-12T01:00:19.021Z,37.40
2018-04-12T01:02:46.025Z,36.80
2018-04-12T01:05:14.231Z,37.90
2018-04-12T01:07:41.252Z,36.50
2018-04-12T01:10:08.247Z,36.50
2018-04-12T01:12:35.250Z,36.60
2018-04-12T01:15:02.300Z,37.00
2018-04-12T01:17:29.287Z,36.70
2018-04-12T01:19:56.290Z,36.00
2018-04-12T01:22:23.321Z,35.80
2018-04-12T01:24:50.302Z,36.00
2018-04-12T01:27:17.297Z,36.10
2018-04-12T01:29:44.341Z,36.40
2018-04-12T01:32:11.335Z,36.80
2018-04-12T01:39:44.177Z,38.00
2018-04-12T01:42:11.166Z,38.10
2018-04-12T01:44:38.208Z,38.20
2018-04-12T01:47:05.200Z,38.10
2018-04-12T01:49:32.201Z,38.00
2018-04-12T01:51:59.255Z,38.50
2018-04-12T01:54:29.676Z,38.70
2018-04-12T01:56:56.661Z,38.80
2018-04-12T01:59:24.451Z,39.40
2018-04-12T02:01:51.452Z,39.60
2018-04-12T02:04:19.987Z,40.30
2018-04-12T02:06:47.894Z,41.50
2018-04-12T02:09:14.893Z,42.00
2018-04-12T02:11:42.722Z,42.30
2018-04-12T02:14:12.772Z,43.00
2018-04-12T02:16:39.772Z,44.70
2018-04-12T02:19:07.591Z,44.60
2018-04-12T02:21:34.603Z,45.00
2018-04-12T02:24:01.594Z,46.50
2018-04-12T02:26:28.582Z,47.70
2018-04-12T02:28:55.654Z,49.40
2018-04-12T02:33:49.696Z,52.90
2018-04-12T02:36:16.709Z,53.30
2018-04-12T02:38:43.691Z,53.40
2018-04-12T02:41:10.673Z,52.70
2018-04-12T02:43:38.058Z,52.20
2018-04-12T02:46:05.999Z,52.60
2018-04-12T02:48:33.000Z,52.80
2018-04-12T02:51:00.873Z,53.10
2018-04-12T02:53:27.879Z,51.30
2018-04-12T02:55:54.868Z,50.90
2018-04-12T03:03:27.478Z,48.80
2018-04-12T03:05:54.463Z,47.20
2018-04-12T03:08:21.449Z,47.10
2018-04-12T03:10:48.498Z,47.20
2018-04-12T03:13:15.507Z,47.50
2018-04-12T03:15:42.496Z,47.10
2018-04-12T03:18:09.851Z,47.40
2018-04-12T03:20:36.835Z,47.50
2018-04-12T03:23:03.818Z,47.20
2018-04-12T03:25:30.850Z,47.00
2018-04-12T03:27:57.834Z,47.70
2018-04-12T03:30:24.833Z,48.20
2018-04-12T03:32:51.863Z,49.00
2018-04-12T03:35:18.851Z,50.70
2018-04-12T03:37:45.860Z,51.80
2018-04-12T03:40:12.892Z,53.10
2018-04-12T03:42:39.889Z,53.00
2018-04-12T03:45:07.217Z,54.20
2018-04-12T03:47:34.699Z,56.00
2018-04-12T03:50:01.745Z,58.70
2018-04-12T03:52:28.693Z,57.20
2018-04-12T03:54:55.712Z,58.90
2018-04-12T03:57:22.707Z,57.70
2018-04-12T03:59:50.578Z,59.60
2018-04-12T04:02:17.780Z,61.60
2018-04-12T04:04:44.767Z,62.20
2018-04-12T04:07:11.758Z,62.10
2018-04-12T04:09:38.794Z,64.10
2018-04-12T04:12:05.792Z,62.80
2018-04-12T04:17:31.358Z,61.60
2018-04-12T04:20:10.165Z,59.90
2018-04-12T04:22:37.151Z,57.70
2018-04-12T04:25:04.143Z,57.50
2018-04-12T04:29:58.293Z,55.30
2018-04-12T04:32:25.302Z,54.00
2018-04-12T04:34:52.320Z,54.50
2018-04-12T04:37:19.322Z,52.90
2018-04-12T04:39:46.331Z,53.00
2018-04-12T04:42:13.359Z,52.40
2018-04-12T04:44:40.358Z,53.30
2018-04-12T04:47:07.353Z,53.40
2018-04-12T04:49:34.384Z,54.40
2018-04-12T04:54:28.458Z,54.30
2018-04-12T04:56:55.497Z,53.50
2018-04-12T04:59:22.499Z,52.60
2018-04-12T05:01:49.487Z,51.90
2018-04-12T05:04:16.521Z,51.60
2018-04-12T05:06:43.538Z,52.80
2018-04-12T05:09:10.878Z,53.70
2018-04-12T05:11:37.907Z,54.20
2018-04-12T05:14:04.893Z,54.90
2018-04-12T05:16:31.883Z,53.00
2018-04-12T05:18:58.929Z,52.00
2018-04-12T05:21:25.935Z,53.00
2018-04-12T05:23:52.941Z,51.00
2018-04-12T05:26:19.967Z,51.00
2018-04-12T05:28:46.959Z,50.30
2018-04-12T05:31:13.937Z,49.40
2018-04-12T05:33:42.946Z,49.60
2018-04-12T05:36:08.005Z,49.80
2018-04-12T05:38:35.006Z,48.20
2018-04-12T05:43:42.539Z,49.50
2018-04-12T05:46:10.153Z,49.20
2018-04-12T05:48:37.029Z,48.60
2018-04-12T05:51:04.013Z,48.20
2018-04-12T05:56:10.120Z,47.30
2018-04-12T06:01:04.677Z,46.30
2018-04-12T06:03:31.981Z,46.80
2018-04-12T06:05:59.001Z,46.20
2018-04-12T06:08:26.365Z,46.20
2018-04-12T06:10:53.366Z,46.10
2018-04-12T06:13:23.893Z,46.10
2018-04-12T06:15:51.357Z,46.70
2018-04-12T06:18:18.853Z,45.30
2018-04-12T06:20:46.306Z,45.50
2018-04-12T06:23:13.316Z,45.40
2018-04-12T06:25:40.368Z,46.80
2018-04-12T06:28:07.419Z,46.10
2018-04-12T06:30:34.906Z,46.00
2018-04-12T06:33:02.744Z,45.60
2018-04-12T06:35:30.630Z,45.40
2018-04-12T06:38:03.043Z,43.50
2018-04-12T06:40:31.282Z,43.70
2018-04-12T06:42:58.285Z,43.90
2018-04-12T06:45:25.296Z,43.80
2018-04-12T06:47:52.331Z,43.80
2018-04-12T06:50:20.791Z,44.10
2018-04-12T06:52:47.799Z,44.70
2018-04-12T06:55:15.911Z,46.80
2018-04-12T06:57:43.239Z,45.80
2018-04-12T07:00:10.245Z,47.70
2018-04-12T07:02:37.761Z,46.30
2018-04-12T07:05:04.766Z,45.00
2018-04-12T07:07:33.024Z,44.50
2018-04-12T07:10:00.538Z,43.40
2018-04-12T07:12:28.043Z,43.80
2018-04-12T07:14:56.577Z,44.20
2018-04-12T07:17:23.614Z,43.40
2018-04-12T07:22:32.873Z,43.30
2018-04-12T07:24:59.877Z,44.20
2018-04-12T07:27:26.873Z,44.10
2018-04-12T07:32:23.863Z,43.50
2018-04-12T07:34:48.025Z,41.80
2018-04-12T07:37:15.555Z,40.00
2018-04-12T07:39:42.893Z,39.90
2018-04-12T07:42:09.893Z,39.30
2018-04-12T07:44:36.925Z,39.50
2018-04-12T07:47:04.860Z,40.00
2018-04-12T07:49:32.218Z,39.30
2018-04-12T07:51:59.262Z,40.30
2018-04-12T07:54:26.293Z,41.20
2018-04-12T07:56:55.164Z,41.00
2018-04-12T07:59:22.207Z,39.60
2018-04-12T08:01:49.211Z,40.90
2018-04-12T08:04:16.227Z,40.30
2018-04-12T08:06:43.273Z,40.40
2018-04-12T08:09:10.270Z,42.20
2018-04-12T08:11:37.271Z,45.10
2018-04-12T08:14:04.773Z,45.10
2018-04-12T08:16:32.284Z,48.00
2018-04-12T08:19:02.888Z,49.00
2018-04-12T08:21:29.962Z,49.50
2018-04-12T08:23:56.958Z,48.70
2018-04-12T08:31:30.066Z,49.80
2018-04-12T08:33:57.086Z,49.20
2018-04-12T08:38:51.265Z,48.60
2018-04-12T08:41:18.268Z,46.70
2018-04-12T08:43:45.300Z,45.80
2018-04-12T08:46:14.893Z,47.70
2018-04-12T08:48:39.916Z,44.50
2018-04-12T08:51:07.421Z,44.80
2018-04-12T08:53:34.872Z,44.50
2018-04-12T08:56:01.891Z,44.30
2018-04-12T08:58:28.929Z,45.00
2018-04-12T09:00:55.920Z,42.80
2018-04-12T09:03:22.919Z,42.60
2018-04-12T09:05:51.336Z,41.20
2018-04-12T09:08:18.340Z,42.00
2018-04-12T09:10:45.342Z,40.90
2018-04-12T09:13:12.375Z,42.00
2018-04-12T09:15:39.939Z,41.60
2018-04-12T09:18:06.950Z,42.70
2018-04-12T09:20:33.994Z,43.40
2018-04-12T09:23:01.086Z,40.00
2018-04-12T09:25:28.094Z,38.90
2018-04-12T09:27:55.569Z,40.40
2018-04-12T09:30:22.574Z,40.60
2018-04-12T09:32:49.582Z,40.10
2018-04-12T09:35:17.845Z,39.30
2018-04-12T09:37:45.377Z,38.20
2018-04-12T09:40:12.382Z,38.50
2018-04-12T09:42:39.438Z,37.60
2018-04-12T09:45:06.448Z,37.00
2018-04-12T09:47:33.459Z,36.50
2018-04-12T09:50:01.372Z,35.70
2018-04-12T09:55:07.898Z,36.80
2018-04-12T09:57:38.899Z,35.80
2018-04-12T10:00:05.925Z,36.60
2018-04-12T10:02:32.948Z,35.60
2018-04-12T10:05:00.907Z,35.60
2018-04-12T10:07:29.764Z,37.60
2018-04-12T10:09:55.525Z,36.00
2018-04-12T10:12:22.413Z,36.80
2018-04-12T10:14:49.427Z,36.10
2018-04-12T10:17:17.405Z,36.80
2018-04-12T10:19:45.361Z,35.70
2018-04-12T10:22:12.356Z,37.20
2018-04-12T10:24:39.381Z,37.30
2018-04-12T10:27:06.403Z,37.40
2018-04-12T10:29:33.423Z,37.80
2018-04-12T10:32:01.349Z,37.10
2018-04-12T10:34:28.352Z,36.70
2018-04-12T10:36:55.344Z,37.40
2018-04-12T10:39:22.404Z,36.70
2018-04-12T10:41:49.380Z,38.10
2018-04-12T10:46:44.243Z,38.20
2018-04-12T10:49:12.078Z,38.70
2018-04-12T10:51:39.094Z,39.80
2018-04-12T10:54:06.759Z,40.70
2018-04-12T10:56:33.763Z,38.80
2018-04-12T10:59:02.183Z,39.20
2018-04-12T11:01:29.121Z,40.00
2018-04-12T11:03:56.118Z,40.10
2018-04-12T11:06:23.730Z,39.70
2018-04-12T11:08:50.767Z,39.00
2018-04-12T11:11:18.336Z,39.40
2018-04-12T11:13:45.352Z,38.90
2018-04-12T11:18:51.758Z,37.80
2018-04-12T11:21:18.736Z,37.00
2018-04-12T11:23:45.753Z,38.10
2018-04-12T11:26:12.759Z,38.30
2018-04-12T11:28:39.823Z,37.00
2018-04-12T11:31:08.118Z,37.10
2018-04-12T11:33:35.129Z,38.40
2018-04-12T11:36:02.169Z,37.10
2018-04-12T11:38:29.179Z,36.80
2018-04-12T11:40:56.209Z,37.30
2018-04-12T11:45:54.375Z,36.10
2018-04-12T11:48:21.383Z,34.70
2018-04-12T11:50:48.436Z,35.30
2018-04-12T11:53:15.428Z,34.80
2018-04-12T11:58:10.944Z,36.80
2018-04-12T12:00:37.949Z,37.10
2018-04-12T12:03:05.808Z,36.80
2018-04-12T12:05:32.857Z,36.30
2018-04-12T12:07:59.874Z,37.60
2018-04-12T12:12:54.556Z,39.50
2018-04-12T12:15:21.548Z,39.20
2018-04-12T12:20:24.564Z,37.40
2018-04-12T12:22:51.952Z,38.90
2018-04-12T12:25:19.510Z,38.20
2018-04-12T12:27:46.549Z,37.20
2018-04-12T12:30:13.545Z,38.30
2018-04-12T12:32:40.571Z,36.60
2018-04-12T12:35:07.598Z,36.50
2018-04-12T12:37:34.612Z,35.70
2018-04-12T12:40:01.604Z,35.60
2018-04-12T12:42:29.514Z,35.70
2018-04-12T12:44:57.451Z,36.10
2018-04-12T12:47:24.449Z,36.50
2018-04-12T12:49:51.493Z,37.80
2018-04-12T12:52:18.564Z,36.90
2018-04-12T12:54:45.561Z,37.50
2018-04-12T12:57:12.583Z,38.70
2018-04-12T12:59:39.583Z,37.80
2018-04-12T13:02:07.458Z,38.70
2018-04-12T13:04:34.486Z,38.30
2018-04-12T13:07:02.877Z,40.40
2018-04-12T13:09:30.348Z,38.70
2018-04-12T13:11:58.146Z,39.40
2018-04-12T13:14:25.146Z,41.50
2018-04-12T13:19:19.309Z,41.10
2018-04-12T13:21:46.550Z,40.60
2018-04-12T13:24:13.937Z,40.00
2018-04-12T13:26:40.971Z,39.80
2018-04-12T13:29:07.965Z,39.60
2018-04-12T13:31:35.952Z,39.30
2018-04-12T13:34:02.980Z,39.50
2018-04-12T13:36:29.987Z,39.10
2018-04-12T13:38:56.983Z,39.40
2018-04-12T13:41:24.030Z,38.40
2018-04-12T13:43:51.918Z,37.30
2018-04-12T13:48:57.442Z,36.90
2018-04-12T13:51:24.435Z,36.90
2018-04-12T13:53:51.440Z,37.10
2018-04-12T13:56:18.482Z,36.80
2018-04-12T13:58:45.482Z,35.70
2018-04-12T14:01:13.166Z,36.10
2018-04-12T14:03:40.206Z,36.10
2018-04-12T14:06:08.804Z,36.50
2018-04-12T14:08:35.826Z,36.60
2018-04-12T14:11:03.828Z,36.70
2018-04-12T14:13:31.807Z,36.20
2018-04-12T14:16:00.679Z,36.90
2018-04-12T14:18:27.712Z,35.10
2018-04-12T14:20:55.683Z,35.60
2018-04-12T14:23:23.003Z,35.90
2018-04-12T14:25:50.482Z,36.10
2018-04-12T14:28:17.498Z,35.20
2018-04-12T14:30:44.498Z,35.70
2018-04-12T14:33:12.007Z,37.10
2018-04-12T14:35:39.432Z,37.40
2018-04-12T14:38:06.422Z,37.40
2018-04-12T14:40:33.441Z,37.30
2018-04-12T14:43:04.374Z,36.80
2018-04-12T14:45:31.605Z,37.70
2018-04-12T14:50:50.263Z,38.10
2018-04-12T14:53:17.295Z,37.70
2018-04-12T14:55:50.447Z,36.80
2018-04-12T14:58:18.762Z,37.30
2018-04-12T15:00:45.783Z,38.20
2018-04-12T15:03:13.235Z,38.10
2018-04-12T15:05:40.680Z,38.50
2018-04-12T15:08:08.244Z,39.00
2018-04-12T15:10:35.707Z,38.80
2018-04-12T15:13:03.019Z,38.80
2018-04-12T15:15:30.513Z,37.80
2018-04-12T15:17:57.530Z,39.20
2018-04-12T15:20:28.002Z,38.20
2018-04-12T15:22:55.059Z,38.60
2018-04-12T15:25:22.079Z,39.30
2018-04-12T15:30:17.206Z,38.50
2018-04-12T15:32:44.256Z,38.10
2018-04-12T15:35:12.177Z,38.30
2018-04-12T15:37:39.197Z,38.00
2018-04-12T15:40:10.503Z,38.50
2018-04-12T15:47:44.571Z,38.90
2018-04-12T15:50:11.576Z,38.80
2018-04-12T15:52:44.961Z,39.00
2018-04-12T15:58:03.072Z,37.60
2018-04-12T16:00:36.550Z,38.60
2018-04-12T16:03:03.565Z,38.50
2018-04-12T16:05:38.516Z,38.00
2018-04-12T16:08:05.138Z,38.10
2018-04-12T16:10:33.918Z,38.80
2018-04-12T16:13:00.976Z,38.80
2018-04-12T16:15:27.987Z,39.20
2018-04-12T16:17:56.405Z,38.70
2018-04-12T16:22:50.545Z,38.80
2018-04-12T16:25:17.550Z,38.20
2018-04-12T16:27:44.600Z,37.90
2018-04-12T16:30:11.614Z,38.20
2018-04-12T16:32:38.601Z,38.20
2018-04-12T16:35:05.642Z,38.20
2018-04-12T16:37:32.651Z,37.90
2018-04-12T16:39:59.636Z,37.70
2018-04-12T16:42:26.686Z,38.00
2018-04-12T16:44:53.691Z,36.80
2018-04-12T16:52:35.144Z,35.00
2018-04-12T16:55:02.138Z,34.60
2018-04-12T16:57:29.177Z,34.80
2018-04-12T16:59:56.188Z,35.00
2018-04-12T17:02:23.702Z,35.10
2018-04-12T17:04:50.732Z,35.60
2018-04-12T17:07:17.730Z,35.30
2018-04-12T17:09:44.731Z,34.90
2018-04-12T17:12:13.617Z,35.50
2018-04-12T17:14:38.791Z,36.40
2018-04-12T17:17:07.751Z,37.10
2018-04-12T17:19:34.785Z,37.00
2018-04-12T17:22:01.799Z,37.50
2018-04-12T17:24:34.424Z,37.60
2018-04-12T17:27:02.221Z,36.60
2018-04-12T17:29:29.304Z,36.60
2018-04-12T17:31:57.717Z,36.50
2018-04-12T17:34:25.053Z,37.40
2018-04-12T17:36:52.584Z,37.60
2018-04-12T17:39:19.632Z,37.10
2018-04-12T17:44:31.054Z,37.60
2018-04-12T17:46:59.022Z,37.50
2018-04-12T17:49:26.047Z,36.80
2018-04-12T17:51:53.320Z,37.00
2018-04-12T17:54:20.348Z,36.10
2018-04-12T17:59:14.484Z,36.20
2018-04-12T18:01:41.506Z,36.00
2018-04-12T18:04:09.463Z,36.00
2018-04-12T18:06:37.323Z,36.20
2018-04-12T18:11:31.979Z,36.10
2018-04-12T18:13:59.286Z,35.60
2018-04-12T18:16:26.769Z,36.10
2018-04-12T18:18:54.171Z,36.00
2018-04-12T18:21:21.626Z,36.40
2018-04-12T18:23:48.669Z,36.30
2018-04-12T18:26:15.929Z,34.10
2018-04-12T18:28:42.968Z,34.10
2018-04-12T18:31:10.745Z,33.70
2018-04-12T18:33:37.800Z,33.90
2018-04-12T18:38:32.824Z,34.40
2018-04-12T18:40:59.828Z,34.60
2018-04-12T18:43:27.301Z,34.10
2018-04-12T18:48:21.900Z,34.20
2018-04-12T18:50:48.924Z,34.20
2018-04-12T18:53:16.111Z,33.90
2018-04-12T18:55:43.094Z,34.40
2018-04-12T19:00:48.767Z,34.60
2018-04-12T19:03:15.808Z,34.80
2018-04-12T19:05:42.801Z,34.80
2018-04-12T19:08:13.277Z,34.80
2018-04-12T19:10:40.324Z,35.00
2018-04-12T19:13:07.628Z,36.00
2018-04-12T19:15:34.322Z,36.00
2018-04-12T19:18:01.356Z,36.20
2018-04-12T19:20:28.352Z,36.50
2018-04-12T19:22:55.331Z,36.40
2018-04-12T19:25:22.353Z,36.20
2018-04-12T19:30:16.406Z,37.40
2018-04-12T19:32:43.445Z,35.90
2018-04-12T19:35:10.443Z,36.10
2018-04-12T19:37:37.454Z,35.20
2018-04-12T19:40:04.484Z,34.60
2018-04-12T19:42:31.488Z,35.70
2018-04-12T19:44:58.490Z,36.10
2018-04-12T19:47:25.537Z,36.70
2018-04-12T19:49:52.516Z,36.10
2018-04-12T19:52:19.518Z,37.10
2018-04-12T19:54:46.550Z,37.40
2018-04-12T19:57:13.536Z,36.50
2018-04-12T19:59:40.533Z,37.30
2018-04-12T20:02:07.548Z,37.30
2018-04-12T20:04:34.541Z,37.20
2018-04-12T20:07:01.537Z,36.50
2018-04-12T20:09:28.560Z,36.50
2018-04-12T20:14:22.662Z,37.20
2018-04-12T20:16:49.889Z,36.90
2018-04-12T20:19:16.910Z,37.30
2018-04-12T20:24:25.495Z,38.40
2018-04-12T20:26:53.361Z,37.80
2018-04-12T20:29:20.373Z,38.00
2018-04-12T20:31:47.421Z,37.70
2018-04-12T20:34:14.461Z,37.50
2018-04-12T20:36:41.470Z,37.60
2018-04-12T20:39:08.517Z,37.60
2018-04-12T20:41:37.259Z,37.80
2018-04-12T20:44:04.253Z,37.90
2018-04-12T20:46:31.294Z,37.30
2018-04-12T20:48:58.307Z,37.40
2018-04-12T20:53:52.622Z,36.90
2018-04-12T20:56:19.830Z,37.00
2018-04-12T20:58:46.835Z,36.80
2018-04-12T21:01:13.859Z,36.50
2018-04-12T21:03:40.837Z,36.70
2018-04-12T21:06:07.836Z,36.50
2018-04-12T21:08:38.457Z,36.30
2018-04-12T21:11:05.466Z,36.00
2018-04-12T21:13:32.451Z,35.50
2018-04-12T21:15:59.487Z,35.80
2018-04-12T21:18:26.466Z,36.10
2018-04-12T21:20:53.465Z,35.70
2018-04-12T21:23:25.071Z,35.90
2018-04-12T21:25:52.065Z,36.20
2018-04-12T21:28:19.419Z,36.00
2018-04-12T21:30:46.432Z,36.60
2018-04-12T21:33:13.425Z,36.90
2018-04-12T21:38:07.549Z,36.70
2018-04-12T21:40:34.540Z,36.70
2018-04-12T21:43:01.530Z,37.00
2018-04-12T21:45:28.584Z,37.10
2018-04-12T21:53:01.163Z,37.60
2018-04-12T21:55:28.142Z,37.00
2018-04-12T21:57:55.440Z,36.60
2018-04-12T22:00:22.473Z,37.10
2018-04-12T22:02:49.457Z,36.70
2018-04-12T22:05:16.499Z,36.70
2018-04-12T22:07:43.537Z,38.70
2018-04-12T22:10:10.551Z,38.90
2018-04-12T22:12:37.583Z,38.90
2018-04-12T22:15:04.588Z,39.50
2018-04-12T22:17:31.573Z,38.90
2018-04-12T22:19:58.638Z,38.70
2018-04-12T22:25:01.844Z,38.90
2018-04-12T22:27:28.880Z,37.90
2018-04-12T22:29:58.157Z,37.20
2018-04-12T22:32:23.250Z,41.00
2018-04-12T22:34:50.572Z,37.20
2018-04-12T22:39:59.984Z,39.00
2018-04-12T22:42:27.239Z,38.40
2018-04-12T22:44:54.294Z,38.00
2018-04-12T22:47:23.268Z,38.10
2018-04-12T22:49:50.268Z,37.60
2018-04-12T22:52:20.344Z,38.00
2018-04-12T22:54:47.432Z,40.20
2018-04-12T22:57:14.407Z,41.70
2018-04-12T22:59:41.428Z,40.80
2018-04-12T23:02:08.737Z,40.10
2018-04-12T23:07:18.374Z,44.60
2018-04-12T23:09:45.355Z,43.70
2018-04-12T23:14:41.011Z,41.20
2018-04-12T23:17:07.997Z,43.50
2018-04-12T23:19:35.367Z,48.00
2018-04-12T23:22:02.391Z,48.60
2018-04-12T23:24:29.389Z,46.50
2018-04-12T23:26:56.701Z,45.70
2018-04-12T23:29:23.723Z,44.50
2018-04-12T23:31:50.720Z,44.80
2018-04-12T23:34:17.716Z,47.00
2018-04-12T23:36:45.551Z,47.80
2018-04-12T23:39:12.965Z,49.10
2018-04-12T23:41:39.990Z,52.00
2018-04-12T23:44:07.017Z,52.90
2018-04-12T23:46:34.011Z,53.60
2018-04-12T23:49:01.609Z,52.20
2018-04-12T23:51:28.625Z,52.90
2018-04-12T23:53:56.263Z,52.90
2018-04-12T23:56:22.604Z,53.70
2018-04-12T23:58:49.626Z,52.80
